메인 페이지
METAR-TAF:

METAR-TAF

공항 :

Wings Field

필라델피아 / Blue Bell, 펜실베이니아, 미국

위도: 40-08-15N, 경도: 075-15-54W, 고도: 92m

현재 날씨관측

예보는 25분 전, 02:15시(UTC)에 발표되었습니다.
동북동13kt, 순간 최대 풍속 18kt
온도 9°C
습도 100%
기압 1003 hPa
시정: 8.0km
고도 300ft 상공 흐림
박무

METAR: KLOM 120215Z AUTO 07013G18KT 5SM BR OVC003 09/09 A2961 RMK AO2 T00920089

시각: 22:40 (02:40 UTC)


TAF: 누락

4,000개 이상의 공항 관측 자료 및 예보 (METAR 및 TAF 보고).

지도상에서 검색 가능한 기상관측소가 노란 점과 빨간 점으로 표시되어 있습니다.

기상관측소 명을 보려면 표시 위로 마우스를 이동하세요.

날씨 관측과 예보를 보려면 클릭하세요.

지도 변경 : 확대하려면 엑스 표시가 있는 녹색 버튼, 축소하려면 빼기 표시가 있는 녹색 버튼, 다음 페이지의 지도를 보려면 녹색 화살표를 클릭하세요.


METAR-TAF: